createdAt,value
2018-01-12T00:00:24.022Z,51.80
2018-01-12T00:02:52.319Z,47.00
2018-01-12T00:05:20.982Z,49.93
2018-01-12T00:07:49.383Z,48.80
2018-01-12T00:10:20.363Z,47.20
2018-01-12T00:12:49.302Z,45.63
2018-01-12T00:15:18.178Z,50.00
2018-01-12T00:17:47.634Z,49.10
2018-01-12T00:20:17.361Z,51.67
2018-01-12T00:22:46.667Z,49.97
2018-01-12T00:25:16.336Z,53.70
2018-01-12T00:27:45.204Z,52.90
2018-01-12T00:30:13.718Z,51.17
2018-01-12T00:32:42.710Z,53.10
2018-01-12T00:35:11.076Z,52.30
2018-01-12T00:37:39.372Z,52.43
2018-01-12T00:40:07.702Z,53.87
2018-01-12T00:42:36.076Z,53.37
2018-01-12T00:45:04.455Z,57.60
2018-01-12T00:47:32.915Z,57.33
2018-01-12T00:50:01.203Z,59.60
2018-01-12T00:52:29.717Z,60.00
2018-01-12T00:55:04.016Z,56.13
2018-01-12T00:57:34.663Z,54.70
2018-01-12T01:00:03.210Z,54.73
2018-01-12T01:02:34.462Z,57.40
2018-01-12T01:05:03.415Z,57.27
2018-01-12T01:07:31.972Z,54.67
2018-01-12T01:10:01.230Z,57.83
2018-01-12T01:12:29.582Z,54.57
2018-01-12T01:14:57.886Z,55.47
2018-01-12T01:17:26.763Z,56.90
2018-01-12T01:19:55.240Z,58.40
2018-01-12T01:22:24.043Z,55.17
2018-01-12T01:31:39.821Z,51.50
2018-01-12T01:34:08.122Z,57.13
2018-01-12T01:36:36.447Z,57.00
2018-01-12T01:39:05.421Z,54.77
2018-01-12T01:41:33.782Z,52.83
2018-01-12T01:44:02.128Z,53.20
2018-01-12T01:46:30.479Z,55.80
2018-01-12T01:48:58.760Z,54.13
2018-01-12T01:51:27.147Z,55.90
2018-01-12T01:53:55.571Z,54.77
2018-01-12T01:56:24.041Z,54.97
2018-01-12T01:58:52.427Z,53.10
2018-01-12T02:01:20.939Z,55.70
2018-01-12T02:03:49.392Z,54.23
2018-01-12T02:06:17.736Z,53.23
2018-01-12T02:08:46.020Z,54.50
2018-01-12T02:11:14.329Z,56.70
2018-01-12T02:13:42.726Z,57.97
2018-01-12T02:16:11.067Z,55.13
2018-01-12T02:18:39.365Z,54.70
2018-01-12T02:21:07.678Z,54.30
2018-01-12T02:23:36.018Z,54.17
2018-01-12T02:26:04.355Z,52.13
2018-01-12T02:28:32.679Z,54.50
2018-01-12T02:31:01.032Z,52.20
2018-01-12T02:33:29.547Z,55.40
2018-01-12T02:35:57.862Z,54.53
2018-01-12T02:38:26.172Z,56.47
2018-01-12T02:40:54.604Z,55.90
2018-01-12T02:43:23.083Z,53.70
2018-01-12T02:45:51.692Z,56.67
2018-01-12T02:48:21.324Z,55.30
2018-01-12T02:50:49.644Z,55.47
2018-01-12T02:53:17.943Z,56.50
2018-01-12T02:55:46.350Z,54.93
2018-01-12T02:58:14.686Z,54.03
2018-01-12T03:00:43.195Z,54.40
2018-01-12T03:03:11.518Z,54.43
2018-01-12T03:05:39.818Z,55.00
2018-01-12T03:08:08.256Z,55.60
2018-01-12T03:10:36.657Z,56.40
2018-01-12T03:13:05.012Z,55.40
2018-01-12T03:15:33.338Z,59.10
2018-01-12T03:18:01.635Z,57.60
2018-01-12T03:20:30.080Z,55.83
2018-01-12T03:22:58.530Z,59.73
2018-01-12T03:25:27.148Z,56.43
2018-01-12T03:27:55.434Z,59.17
2018-01-12T03:30:23.807Z,57.77
2018-01-12T03:32:52.116Z,53.27
2018-01-12T03:35:20.478Z,56.30
2018-01-12T03:37:48.800Z,54.00
2018-01-12T03:40:17.102Z,55.30
2018-01-12T03:42:45.457Z,52.87
2018-01-12T03:45:13.791Z,54.70
2018-01-12T03:47:42.099Z,56.63
2018-01-12T03:50:10.443Z,55.80
2018-01-12T03:52:38.736Z,54.33
2018-01-12T03:55:07.171Z,55.90
2018-01-12T03:57:35.618Z,57.43
2018-01-12T04:00:03.925Z,54.50
2018-01-12T04:02:32.269Z,54.43
2018-01-12T04:05:00.650Z,55.43
2018-01-12T04:07:29.015Z,55.20
2018-01-12T04:09:57.315Z,54.23
2018-01-12T04:12:25.640Z,55.70
2018-01-12T04:14:53.936Z,55.33
2018-01-12T04:17:22.270Z,55.10
2018-01-12T04:19:50.541Z,56.90
2018-01-12T04:22:18.871Z,56.50
2018-01-12T04:24:47.129Z,56.90
2018-01-12T04:27:15.484Z,55.80
2018-01-12T04:29:43.789Z,56.40
2018-01-12T04:32:12.142Z,54.43
2018-01-12T04:34:40.412Z,54.97
2018-01-12T04:37:08.747Z,55.03
2018-01-12T04:39:37.103Z,52.00
2018-01-12T04:42:05.470Z,55.17
2018-01-12T04:44:33.770Z,54.67
2018-01-12T04:47:02.115Z,55.97
2018-01-12T04:49:30.401Z,55.43
2018-01-12T04:51:58.788Z,59.20
2018-01-12T04:54:27.111Z,58.17
2018-01-12T04:56:56.423Z,58.27
2018-01-12T04:59:24.736Z,59.20
2018-01-12T05:04:48.890Z,56.07
2018-01-12T05:07:17.515Z,56.37
2018-01-12T05:09:46.127Z,56.27
2018-01-12T05:12:14.707Z,56.10
2018-01-12T05:14:43.233Z,56.27
2018-01-12T05:17:11.980Z,54.50
2018-01-12T05:19:40.632Z,57.17
2018-01-12T05:22:09.344Z,56.67
2018-01-12T05:24:37.860Z,55.80
2018-01-12T05:27:07.528Z,61.00
2018-01-12T05:29:36.342Z,59.07
2018-01-12T05:32:04.876Z,57.60
2018-01-12T05:34:33.376Z,54.87
2018-01-12T05:37:02.145Z,57.40
2018-01-12T05:39:30.649Z,54.03
2018-01-12T05:41:59.414Z,56.27
2018-01-12T05:44:27.948Z,55.00
2018-01-12T05:46:56.465Z,56.67
2018-01-12T05:49:24.950Z,55.27
2018-01-12T05:51:53.774Z,59.23
2018-01-12T05:54:22.325Z,51.83
2018-01-12T05:56:51.137Z,52.30
2018-01-12T05:59:19.661Z,53.13
2018-01-12T06:01:59.499Z,50.77
2018-01-12T06:06:41.330Z,53.70
2018-01-12T06:09:10.218Z,49.90
2018-01-12T06:11:38.925Z,52.30
2018-01-12T06:14:07.460Z,53.00
2018-01-12T06:16:35.997Z,50.30
2018-01-12T06:19:04.628Z,46.70
2018-01-12T06:21:33.288Z,49.97
2018-01-12T06:24:01.843Z,47.60
2018-01-12T06:26:30.357Z,48.47
2018-01-12T06:28:58.923Z,49.27
2018-01-12T06:31:27.565Z,49.40
2018-01-12T06:33:56.087Z,48.27
2018-01-12T06:36:24.757Z,48.00
2018-01-12T06:38:53.843Z,47.73
2018-01-12T06:41:22.514Z,46.63
2018-01-12T06:43:52.619Z,46.10
2018-01-12T06:46:21.210Z,42.77
2018-01-12T06:48:49.835Z,43.27
2018-01-12T06:51:18.547Z,42.00
2018-01-12T06:53:47.345Z,42.33
2018-01-12T06:56:16.138Z,42.43
2018-01-12T06:58:44.788Z,39.70
2018-01-12T07:01:13.309Z,40.27
2018-01-12T07:03:41.908Z,38.80
2018-01-12T07:06:11.397Z,40.10
2018-01-12T07:08:39.984Z,38.47
2018-01-12T07:11:08.816Z,42.30
2018-01-12T07:13:37.685Z,41.90
2018-01-12T07:16:06.269Z,42.83
2018-01-12T07:18:34.870Z,41.10
2018-01-12T07:21:14.768Z,42.60
2018-01-12T07:23:45.509Z,41.47
2018-01-12T07:26:14.053Z,39.80
2018-01-12T07:28:42.608Z,40.67
2018-01-12T07:31:11.153Z,38.20
2018-01-12T07:33:39.659Z,39.50
2018-01-12T07:36:08.209Z,37.80
2018-01-12T07:38:36.924Z,39.00
2018-01-12T07:41:05.491Z,41.00
2018-01-12T07:43:33.997Z,37.70
2018-01-12T07:46:04.343Z,39.67
2018-01-12T07:48:32.883Z,40.50
2018-01-12T07:51:01.589Z,37.63
2018-01-12T07:53:30.495Z,39.20
2018-01-12T07:55:59.193Z,36.87
2018-01-12T07:58:27.841Z,36.13
2018-01-12T08:01:00.851Z,36.10
2018-01-12T08:03:29.508Z,36.17
2018-01-12T08:05:58.039Z,35.40
2018-01-12T08:08:26.688Z,35.10
2018-01-12T08:10:55.443Z,36.27
2018-01-12T08:13:23.983Z,34.87
2018-01-12T08:15:52.545Z,35.40
2018-01-12T08:18:21.059Z,34.47
2018-01-12T08:20:49.950Z,33.97
2018-01-12T08:23:21.718Z,32.67
2018-01-12T08:25:50.712Z,34.80
2018-01-12T08:28:19.542Z,34.33
2018-01-12T08:30:48.367Z,32.23
2018-01-12T08:33:16.927Z,34.37
2018-01-12T08:35:45.778Z,33.60
2018-01-12T08:38:14.977Z,35.37
2018-01-12T08:40:43.856Z,32.80
2018-01-12T08:43:12.426Z,34.10
2018-01-12T08:45:41.017Z,36.77
2018-01-12T08:48:09.587Z,34.57
2018-01-12T08:50:38.202Z,34.10
2018-01-12T08:53:12.674Z,35.50
2018-01-12T08:55:42.472Z,34.57
2018-01-12T08:58:13.384Z,33.90
2018-01-12T09:00:42.140Z,33.47
2018-01-12T09:03:11.374Z,36.10
2018-01-12T09:05:39.939Z,33.40
2018-01-12T09:08:08.777Z,33.77
2018-01-12T09:10:37.456Z,34.27
2018-01-12T09:13:15.080Z,35.50
2018-01-12T09:15:43.744Z,37.20
2018-01-12T09:18:21.297Z,34.73
2018-01-12T09:20:50.428Z,34.83
2018-01-12T09:23:27.945Z,36.33
2018-01-12T09:25:56.596Z,35.20
2018-01-12T09:28:25.307Z,33.70
2018-01-12T09:30:53.981Z,33.07
2018-01-12T09:33:22.543Z,33.60
2018-01-12T09:35:51.191Z,32.97
2018-01-12T09:38:28.015Z,33.00
2018-01-12T09:40:56.716Z,33.40
2018-01-12T09:43:25.336Z,33.17
2018-01-12T09:45:54.335Z,33.87
2018-01-12T09:48:27.747Z,35.37
2018-01-12T09:50:56.579Z,35.33
2018-01-12T09:53:25.137Z,32.87
2018-01-12T09:55:53.761Z,36.10
2018-01-12T09:58:22.383Z,32.03
2018-01-12T10:00:59.171Z,33.90
2018-01-12T10:03:27.928Z,34.07
2018-01-12T10:05:57.102Z,34.20
2018-01-12T10:08:26.403Z,33.17
2018-01-12T10:10:55.000Z,33.10
2018-01-12T10:13:23.609Z,34.53
2018-01-12T10:15:52.191Z,34.20
2018-01-12T10:18:25.550Z,32.83
2018-01-12T10:20:55.103Z,33.40
2018-01-12T10:23:23.717Z,33.73
2018-01-12T10:25:52.429Z,36.90
2018-01-12T10:28:21.106Z,32.67
2018-01-12T10:30:57.451Z,32.27
2018-01-12T10:33:31.946Z,32.90
2018-01-12T10:36:07.335Z,34.70
2018-01-12T10:38:36.163Z,33.00
2018-01-12T10:41:13.571Z,35.13
2018-01-12T10:43:43.544Z,37.00
2018-01-12T10:46:20.995Z,34.97
2018-01-12T10:48:57.066Z,32.50
2018-01-12T10:51:34.653Z,34.20
2018-01-12T10:54:03.651Z,33.83
2018-01-12T10:56:32.224Z,35.80
2018-01-12T10:59:00.780Z,33.07
2018-01-12T11:01:29.598Z,32.53
2018-01-12T11:03:58.300Z,35.67
2018-01-12T11:06:27.227Z,33.53
2018-01-12T11:08:56.088Z,34.10
2018-01-12T11:11:24.983Z,34.27
2018-01-12T11:13:53.836Z,34.87
2018-01-12T11:16:22.552Z,33.60
2018-01-12T11:18:51.208Z,35.33
2018-01-12T11:21:19.874Z,35.63
2018-01-12T11:23:48.804Z,33.03
2018-01-12T11:26:18.012Z,35.63
2018-01-12T11:28:46.561Z,34.27
2018-01-12T11:31:15.084Z,35.57
2018-01-12T11:33:45.389Z,33.57
2018-01-12T11:36:13.999Z,33.70
2018-01-12T11:38:42.600Z,32.83
2018-01-12T11:41:11.148Z,35.10
2018-01-12T11:43:39.838Z,31.90
2018-01-12T11:46:08.524Z,34.10
2018-01-12T11:48:37.068Z,34.87
2018-01-12T11:51:05.780Z,31.47
2018-01-12T11:53:34.635Z,33.50
2018-01-12T11:56:03.173Z,33.67
2018-01-12T11:58:31.816Z,34.00
2018-01-12T12:01:00.548Z,35.73
2018-01-12T12:03:29.179Z,33.00
2018-01-12T12:05:58.752Z,30.73
2018-01-12T12:08:27.392Z,30.90
2018-01-12T12:10:56.283Z,32.60
2018-01-12T12:13:25.388Z,32.73
2018-01-12T12:15:54.504Z,32.70
2018-01-12T12:18:23.477Z,33.80
2018-01-12T12:20:52.177Z,32.43
2018-01-12T12:23:20.850Z,32.47
2018-01-12T12:25:49.936Z,32.70
2018-01-12T12:28:19.485Z,31.57
2018-01-12T12:30:48.340Z,31.87
2018-01-12T12:33:17.657Z,32.43
2018-01-12T12:35:47.394Z,32.63
2018-01-12T12:38:17.007Z,29.77
2018-01-12T12:40:46.482Z,32.53
2018-01-12T12:43:15.257Z,35.30
2018-01-12T12:45:43.861Z,33.23
2018-01-12T12:48:13.128Z,34.60
2018-01-12T12:50:42.951Z,30.50
2018-01-12T12:53:11.938Z,33.07
2018-01-12T12:55:42.725Z,32.90
2018-01-12T12:58:11.607Z,31.80
2018-01-12T13:00:41.560Z,33.37
2018-01-12T13:03:11.540Z,34.00
2018-01-12T13:05:40.872Z,32.97
2018-01-12T13:08:09.461Z,31.77
2018-01-12T13:10:38.463Z,32.00
2018-01-12T13:13:07.038Z,31.97
2018-01-12T13:15:36.186Z,31.17
2018-01-12T13:18:04.799Z,31.53
2018-01-12T13:20:33.538Z,31.80
2018-01-12T13:23:02.428Z,34.53
2018-01-12T13:25:31.133Z,30.73
2018-01-12T13:28:00.199Z,32.20
2018-01-12T13:30:29.134Z,33.37
2018-01-12T13:32:57.742Z,35.33
2018-01-12T13:35:26.676Z,32.07
2018-01-12T13:37:55.538Z,33.10
2018-01-12T13:40:24.449Z,34.00
2018-01-12T13:42:53.308Z,35.77
2018-01-12T13:45:21.892Z,33.27
2018-01-12T13:47:50.455Z,32.10
2018-01-12T13:50:19.343Z,34.00
2018-01-12T13:52:48.243Z,35.70
2018-01-12T13:55:16.979Z,34.17
2018-01-12T13:57:45.814Z,34.10
2018-01-12T14:00:14.573Z,32.67
2018-01-12T14:02:43.192Z,31.57
2018-01-12T14:05:12.934Z,31.63
2018-01-12T14:07:41.459Z,31.87
2018-01-12T14:10:10.522Z,34.00
2018-01-12T14:12:39.239Z,35.60
2018-01-12T14:15:09.806Z,36.47
2018-01-12T14:17:38.643Z,33.40
2018-01-12T14:20:07.524Z,36.60
2018-01-12T14:22:36.103Z,35.20
2018-01-12T14:25:04.898Z,34.80
2018-01-12T14:27:33.938Z,34.70
2018-01-12T14:30:03.928Z,33.10
2018-01-12T14:32:32.822Z,35.83
2018-01-12T14:35:01.487Z,35.53
2018-01-12T14:37:30.166Z,35.07
2018-01-12T14:39:58.882Z,35.17
2018-01-12T14:42:28.281Z,36.00
2018-01-12T14:44:56.808Z,36.27
2018-01-12T14:47:25.602Z,35.80
2018-01-12T14:49:54.253Z,35.13
2018-01-12T14:52:23.208Z,34.83
2018-01-12T14:54:53.063Z,34.27
2018-01-12T14:57:22.201Z,34.57
2018-01-12T14:59:51.081Z,35.13
2018-01-12T15:02:20.005Z,38.17
2018-01-12T15:04:48.860Z,35.37
2018-01-12T15:07:18.797Z,37.20
2018-01-12T15:09:47.647Z,36.93
2018-01-12T15:12:16.269Z,37.60
2018-01-12T15:14:45.264Z,37.20
2018-01-12T15:17:14.665Z,39.50
2018-01-12T15:19:44.257Z,38.20
2018-01-12T15:22:13.349Z,35.93
2018-01-12T15:24:42.259Z,36.13
2018-01-12T15:27:12.150Z,35.67
2018-01-12T15:29:41.268Z,38.70
2018-01-12T15:32:10.172Z,40.23
2018-01-12T15:34:39.222Z,35.90
2018-01-12T15:37:08.140Z,38.20
2018-01-12T15:39:37.710Z,36.63
2018-01-12T15:42:06.518Z,40.03
2018-01-12T15:44:36.108Z,40.53
2018-01-12T15:47:05.397Z,41.20
2018-01-12T15:49:34.752Z,41.20
2018-01-12T15:52:03.951Z,42.87
2018-01-12T15:54:32.944Z,37.83
2018-01-12T15:57:02.217Z,37.73
2018-01-12T15:59:30.774Z,39.57
2018-01-12T16:01:59.491Z,40.10
2018-01-12T16:04:28.741Z,40.00
2018-01-12T16:06:57.621Z,39.73
2018-01-12T16:09:27.790Z,40.60
2018-01-12T16:11:57.117Z,42.13
2018-01-12T16:14:25.994Z,39.90
2018-01-12T16:16:55.197Z,41.53
2018-01-12T16:19:24.204Z,43.50
2018-01-12T16:21:53.806Z,44.40
2018-01-12T16:24:23.698Z,43.10
2018-01-12T16:26:52.814Z,44.40
2018-01-12T16:29:21.688Z,44.13
2018-01-12T16:31:50.801Z,44.10
2018-01-12T16:34:19.433Z,45.33
2018-01-12T16:37:51.664Z,43.10
2018-01-12T16:40:20.551Z,44.60
2018-01-12T16:42:49.407Z,44.43
2018-01-12T16:45:18.254Z,42.80
2018-01-12T16:47:47.395Z,43.50
2018-01-12T16:50:17.524Z,42.50
2018-01-12T16:52:46.304Z,41.93
2018-01-12T16:55:15.213Z,42.97
2018-01-12T16:57:44.086Z,42.80
2018-01-12T17:00:12.903Z,43.20
2018-01-12T17:02:41.518Z,41.73
2018-01-12T17:05:10.757Z,41.20
2018-01-12T17:07:39.411Z,42.90
2018-01-12T17:10:08.335Z,44.07
2018-01-12T17:12:37.669Z,43.20
2018-01-12T17:15:07.989Z,43.53
2018-01-12T17:17:36.649Z,41.87
2018-01-12T17:20:05.765Z,46.93
2018-01-12T17:22:35.247Z,44.30
2018-01-12T17:25:03.960Z,43.37
2018-01-12T17:27:32.605Z,45.10
2018-01-12T17:30:01.481Z,46.50
2018-01-12T17:32:30.404Z,44.97
2018-01-12T17:34:58.848Z,46.83
2018-01-12T17:37:27.593Z,45.30
2018-01-12T17:39:56.216Z,43.77
2018-01-12T17:42:24.973Z,44.87
2018-01-12T17:44:53.620Z,41.73
2018-01-12T17:47:22.271Z,44.03
2018-01-12T17:49:50.841Z,42.10
2018-01-12T17:52:19.499Z,42.90
2018-01-12T17:54:48.440Z,42.10
2018-01-12T17:57:17.265Z,41.20
2018-01-12T17:59:46.557Z,42.60
2018-01-12T18:02:15.560Z,41.00
2018-01-12T18:04:44.295Z,41.37
2018-01-12T18:07:13.195Z,40.87
2018-01-12T18:09:42.258Z,37.87
2018-01-12T18:12:11.928Z,37.53
2018-01-12T18:14:40.475Z,37.87
2018-01-12T18:17:09.115Z,35.80
2018-01-12T18:19:37.669Z,39.27
2018-01-12T18:22:06.662Z,38.90
2018-01-12T18:24:35.673Z,38.73
2018-01-12T18:27:04.208Z,38.57
2018-01-12T18:29:33.000Z,37.03
2018-01-12T18:32:01.627Z,37.10
2018-01-12T18:34:30.187Z,37.70
2018-01-12T18:36:58.916Z,38.40
2018-01-12T18:39:27.549Z,36.53
2018-01-12T18:41:56.123Z,37.93
2018-01-12T18:44:24.756Z,38.13
2018-01-12T18:46:53.390Z,37.07
2018-01-12T18:49:22.204Z,39.27
2018-01-12T18:51:50.901Z,36.37
2018-01-12T18:54:19.754Z,36.67
2018-01-12T18:56:48.297Z,34.17
2018-01-12T18:59:17.110Z,35.53
2018-01-12T19:01:46.389Z,33.17
2018-01-12T19:04:15.150Z,36.93
2018-01-12T19:06:43.760Z,34.97
2018-01-12T19:09:12.961Z,37.73
2018-01-12T19:11:41.625Z,34.50
2018-01-12T19:14:10.144Z,36.00
2018-01-12T19:16:39.217Z,35.73
2018-01-12T19:19:07.981Z,35.00
2018-01-12T19:21:36.705Z,36.73
2018-01-12T19:24:06.089Z,38.37
2018-01-12T19:26:36.068Z,37.40
2018-01-12T19:29:04.793Z,37.27
2018-01-12T19:31:33.479Z,38.90
2018-01-12T19:34:03.607Z,37.77
2018-01-12T19:36:32.893Z,40.47
2018-01-12T19:39:02.394Z,37.87
2018-01-12T19:41:31.186Z,39.40
2018-01-12T19:43:59.776Z,42.90
2018-01-12T19:46:28.530Z,40.93
2018-01-12T19:48:57.187Z,41.33
2018-01-12T19:51:26.138Z,43.80
2018-01-12T19:53:55.032Z,42.27
2018-01-12T19:56:23.623Z,41.07
2018-01-12T19:58:53.284Z,42.57
2018-01-12T20:01:22.152Z,43.27
2018-01-12T20:03:50.954Z,42.97
2018-01-12T20:06:19.973Z,43.60
2018-01-12T20:08:48.680Z,42.90
2018-01-12T20:11:18.063Z,42.40
2018-01-12T20:13:47.885Z,40.20
2018-01-12T20:16:17.312Z,41.80
2018-01-12T20:18:46.725Z,42.00
2018-01-12T20:21:17.024Z,41.73
2018-01-12T20:23:47.074Z,44.03
2018-01-12T20:26:17.044Z,41.67
2018-01-12T20:28:45.977Z,41.70
2018-01-12T20:31:14.868Z,43.80
2018-01-12T20:33:43.345Z,47.43
2018-01-12T20:36:13.342Z,42.00
2018-01-12T20:38:42.167Z,44.80
2018-01-12T20:41:12.096Z,44.03
2018-01-12T20:43:41.562Z,45.60
2018-01-12T20:46:12.813Z,42.67
2018-01-12T20:48:42.643Z,45.87
2018-01-12T20:51:13.738Z,45.30
2018-01-12T20:53:44.436Z,45.87
2018-01-12T20:56:17.761Z,45.70
2018-01-12T20:58:46.433Z,45.80
2018-01-12T21:01:15.041Z,44.53
2018-01-12T21:03:44.860Z,45.50
2018-01-12T21:06:14.549Z,47.50
2018-01-12T21:08:43.207Z,45.40
2018-01-12T21:11:12.507Z,47.67
2018-01-12T21:13:41.478Z,46.93
2018-01-12T21:16:10.434Z,48.10
2018-01-12T21:18:39.120Z,49.53
2018-01-12T21:21:08.160Z,49.30
2018-01-12T21:23:36.946Z,47.00
2018-01-12T21:26:05.672Z,51.00
2018-01-12T21:28:34.223Z,49.47
2018-01-12T21:31:03.233Z,49.17
2018-01-12T21:33:31.947Z,49.13
2018-01-12T21:36:01.775Z,50.00
2018-01-12T21:38:31.152Z,47.50
2018-01-12T21:40:59.707Z,52.60
2018-01-12T21:43:29.131Z,53.27
2018-01-12T21:45:58.150Z,54.57
2018-01-12T21:48:26.852Z,51.37
2018-01-12T21:50:55.601Z,51.00
2018-01-12T21:53:25.510Z,51.77
2018-01-12T21:55:54.208Z,52.17
2018-01-12T21:58:23.534Z,52.30
2018-01-12T22:00:52.996Z,54.83
2018-01-12T22:03:22.564Z,52.30
2018-01-12T22:05:51.620Z,49.93
2018-01-12T22:08:20.307Z,53.27
2018-01-12T22:10:48.909Z,52.80
2018-01-12T22:13:18.517Z,53.47
2018-01-12T22:15:47.850Z,53.40
2018-01-12T22:18:17.061Z,51.87
2018-01-12T22:20:45.666Z,48.93
2018-01-12T22:23:14.265Z,53.40
2018-01-12T22:25:43.162Z,51.57
2018-01-12T22:28:11.882Z,53.30
2018-01-12T22:30:40.529Z,50.97
2018-01-12T22:33:10.016Z,51.43
2018-01-12T22:35:38.648Z,52.90
2018-01-12T22:38:07.266Z,51.07
2018-01-12T22:40:36.202Z,51.60
2018-01-12T22:43:04.892Z,53.90
2018-01-12T22:45:33.436Z,50.47
2018-01-12T22:48:03.604Z,49.93
2018-01-12T22:50:32.672Z,47.93
2018-01-12T22:53:01.563Z,49.60
2018-01-12T22:55:30.247Z,52.07
2018-01-12T22:57:58.808Z,51.20
2018-01-12T23:00:27.386Z,47.80
2018-01-12T23:02:56.505Z,49.90
2018-01-12T23:05:25.200Z,50.07
2018-01-12T23:07:53.922Z,48.30
2018-01-12T23:10:24.363Z,50.60
2018-01-12T23:12:54.307Z,52.77
2018-01-12T23:15:24.277Z,46.63
2018-01-12T23:17:53.492Z,47.30
2018-01-12T23:20:23.033Z,50.50
2018-01-12T23:22:51.781Z,52.77
2018-01-12T23:25:20.391Z,51.10
2018-01-12T23:27:48.966Z,51.60
2018-01-12T23:30:18.168Z,52.30
2018-01-12T23:32:46.708Z,49.83
2018-01-12T23:35:15.437Z,51.30
2018-01-12T23:37:44.557Z,51.00
2018-01-12T23:40:13.111Z,51.17
2018-01-12T23:42:41.909Z,53.23
2018-01-12T23:45:10.682Z,51.47
2018-01-12T23:47:39.283Z,52.50
2018-01-12T23:50:07.947Z,51.07
2018-01-12T23:52:36.501Z,51.30
2018-01-12T23:55:04.928Z,48.47
2018-01-12T23:57:33.555Z,52.60
